createdAt,value
2019-03-28T00:01:09.590Z,9.18
2019-03-28T00:04:20.193Z,7.10
2019-03-28T00:07:28.098Z,7.60
2019-03-28T00:10:36.088Z,8.65
2019-03-28T00:13:43.976Z,8.13
2019-03-28T00:16:51.886Z,7.33
2019-03-28T00:20:01.050Z,6.03
2019-03-28T00:23:30.690Z,8.83
2019-03-28T00:26:38.815Z,8.93
2019-03-28T00:29:47.846Z,9.73
2019-03-28T00:32:55.662Z,8.30
2019-03-28T00:36:04.744Z,9.90
2019-03-28T00:39:12.702Z,7.10
2019-03-28T00:42:20.516Z,9.55
2019-03-28T00:45:28.416Z,9.25
2019-03-28T00:48:36.224Z,9.30
2019-03-28T00:51:44.591Z,8.38
2019-03-28T00:54:55.276Z,7.47
2019-03-28T00:58:03.381Z,7.85
2019-03-28T01:01:11.310Z,9.23
2019-03-28T01:04:19.327Z,6.25
2019-03-28T01:07:27.279Z,7.90
2019-03-28T01:10:35.144Z,9.78
2019-03-28T01:13:43.307Z,7.35
2019-03-28T01:16:51.142Z,7.62
2019-03-28T01:20:02.736Z,9.48
2019-03-28T01:23:10.672Z,9.33
2019-03-28T01:26:18.516Z,7.37
2019-03-28T01:29:26.557Z,7.45
2019-03-28T01:32:34.390Z,11.45
2019-03-28T01:35:42.342Z,8.75
2019-03-28T01:38:50.022Z,8.85
2019-03-28T01:42:00.680Z,7.80
2019-03-28T01:45:08.773Z,11.00
2019-03-28T01:48:16.647Z,8.50
2019-03-28T01:51:24.563Z,10.63
2019-03-28T01:54:32.672Z,9.48
2019-03-28T01:57:40.887Z,8.15
2019-03-28T02:00:48.955Z,10.98
2019-03-28T02:03:56.870Z,9.13
2019-03-28T02:07:04.826Z,7.47
2019-03-28T02:10:13.353Z,8.28
2019-03-28T02:13:22.203Z,11.25
2019-03-28T02:16:30.683Z,10.08
2019-03-28T02:19:38.715Z,8.05
2019-03-28T02:22:46.531Z,10.88
2019-03-28T02:25:56.884Z,10.88
2019-03-28T02:29:04.731Z,9.38
2019-03-28T02:32:12.601Z,11.00
2019-03-28T02:35:20.579Z,8.20
2019-03-28T02:38:30.240Z,9.95
2019-03-28T02:41:38.054Z,8.63
2019-03-28T02:44:48.745Z,9.65
2019-03-28T02:47:56.750Z,11.95
2019-03-28T02:51:04.588Z,10.10
2019-03-28T02:54:12.552Z,11.73
2019-03-28T02:57:21.603Z,7.47
2019-03-28T03:00:29.398Z,10.95
2019-03-28T03:03:37.205Z,10.40
2019-03-28T03:06:44.961Z,11.03
2019-03-28T03:09:52.924Z,11.45
2019-03-28T03:13:00.797Z,10.55
2019-03-28T03:16:10.447Z,11.78
2019-03-28T03:19:18.081Z,9.53
2019-03-28T03:22:25.989Z,10.78
2019-03-28T03:25:33.851Z,14.90
2019-03-28T03:28:42.007Z,12.03
2019-03-28T03:31:49.877Z,11.15
2019-03-28T03:34:57.677Z,10.72
2019-03-28T03:38:05.728Z,10.93
2019-03-28T03:41:13.610Z,9.95
2019-03-28T03:44:21.384Z,12.93
2019-03-28T03:47:29.229Z,12.47
2019-03-28T03:50:37.001Z,13.60
2019-03-28T03:53:45.122Z,11.73
2019-03-28T03:56:52.797Z,9.93
2019-03-28T04:00:00.959Z,12.00
2019-03-28T04:03:08.857Z,10.18
2019-03-28T04:06:16.777Z,11.20
2019-03-28T04:09:24.526Z,11.28
2019-03-28T04:12:32.353Z,10.03
2019-03-28T04:15:40.253Z,10.68
2019-03-28T04:18:48.132Z,13.80
2019-03-28T04:21:55.811Z,11.83
2019-03-28T04:25:03.685Z,13.13
2019-03-28T04:28:12.630Z,11.63
2019-03-28T04:31:21.130Z,9.48
2019-03-28T04:34:29.260Z,11.95
2019-03-28T04:37:36.954Z,11.43
2019-03-28T04:40:44.851Z,8.45
2019-03-28T04:43:55.659Z,12.58
2019-03-28T04:47:04.122Z,12.55
2019-03-28T04:50:12.281Z,12.93
2019-03-28T04:53:22.075Z,10.32
2019-03-28T04:56:29.938Z,12.00
2019-03-28T04:59:44.774Z,14.80
2019-03-28T05:02:55.103Z,13.25
2019-03-28T05:06:02.916Z,15.48
2019-03-28T05:09:10.770Z,11.75
2019-03-28T05:12:18.675Z,13.90
2019-03-28T05:15:26.468Z,14.78
2019-03-28T05:18:34.175Z,15.48
2019-03-28T05:21:41.827Z,12.90
2019-03-28T05:24:49.756Z,13.53
2019-03-28T05:27:58.087Z,12.10
2019-03-28T05:31:05.910Z,15.98
2019-03-28T05:34:13.718Z,13.88
2019-03-28T05:37:21.471Z,18.62
2019-03-28T05:40:29.209Z,16.55
2019-03-28T05:43:36.980Z,14.23
2019-03-28T05:46:44.840Z,14.18
2019-03-28T05:49:52.733Z,16.05
2019-03-28T05:53:00.733Z,14.68
2019-03-28T05:56:08.582Z,14.63
2019-03-28T05:59:16.449Z,19.20
2019-03-28T06:02:24.547Z,15.72
2019-03-28T06:05:33.010Z,20.52
2019-03-28T06:08:40.837Z,14.75
2019-03-28T06:11:48.663Z,17.80
2019-03-28T06:14:56.538Z,16.65
2019-03-28T06:18:04.414Z,20.45
2019-03-28T06:21:12.137Z,20.88
2019-03-28T06:24:20.012Z,14.95
2019-03-28T06:27:27.772Z,13.48
2019-03-28T06:30:35.489Z,17.87
2019-03-28T06:33:43.202Z,19.15
2019-03-28T06:36:51.660Z,17.00
2019-03-28T06:39:59.485Z,18.40
2019-03-28T06:43:07.342Z,21.97
2019-03-28T06:46:15.329Z,14.63
2019-03-28T06:49:23.356Z,15.72
2019-03-28T06:52:31.173Z,14.85
2019-03-28T06:55:38.965Z,13.53
2019-03-28T06:58:46.871Z,13.90
2019-03-28T07:01:54.777Z,15.35
2019-03-28T07:05:02.556Z,16.85
2019-03-28T07:08:10.654Z,19.32
2019-03-28T07:11:18.477Z,19.77
2019-03-28T07:14:26.287Z,17.57
2019-03-28T07:17:34.334Z,16.67
2019-03-28T07:20:43.260Z,17.02
2019-03-28T07:23:50.930Z,17.73
2019-03-28T07:27:00.585Z,15.98
2019-03-28T07:30:09.951Z,18.92
2019-03-28T07:33:17.838Z,15.72
2019-03-28T07:36:25.987Z,15.03
2019-03-28T07:39:34.146Z,18.77
2019-03-28T07:42:44.711Z,24.75
2019-03-28T07:45:53.326Z,34.50
2019-03-28T07:49:01.237Z,38.85
2019-03-28T07:52:09.144Z,19.25
2019-03-28T07:55:16.995Z,18.65
2019-03-28T07:58:24.789Z,16.67
2019-03-28T08:01:32.552Z,15.53
2019-03-28T08:04:40.598Z,16.90
2019-03-28T08:07:49.484Z,14.05
2019-03-28T08:10:58.671Z,15.93
2019-03-28T08:14:06.789Z,17.32
2019-03-28T08:17:14.570Z,16.97
2019-03-28T08:20:22.855Z,13.98
2019-03-28T08:23:30.689Z,14.28
2019-03-28T08:26:38.640Z,12.98
2019-03-28T08:29:46.657Z,14.18
2019-03-28T08:32:54.503Z,10.30
2019-03-28T08:36:02.834Z,9.03
2019-03-28T08:39:11.201Z,13.13
2019-03-28T08:42:19.654Z,10.63
2019-03-28T08:45:27.627Z,9.33
2019-03-28T08:48:35.475Z,10.85
2019-03-28T08:51:43.533Z,7.37
2019-03-28T08:54:51.293Z,13.10
2019-03-28T08:57:59.402Z,9.45
2019-03-28T09:01:08.391Z,11.15
2019-03-28T09:04:16.215Z,10.50
2019-03-28T09:07:24.287Z,10.30
2019-03-28T09:10:32.004Z,10.70
2019-03-28T09:13:40.146Z,12.58
2019-03-28T09:16:47.860Z,11.90
2019-03-28T09:19:55.654Z,9.68
2019-03-28T09:23:03.437Z,10.45
2019-03-28T09:26:11.375Z,14.43
2019-03-28T09:29:19.351Z,12.13
2019-03-28T09:32:27.282Z,9.00
2019-03-28T09:35:35.112Z,11.08
2019-03-28T09:38:44.770Z,12.78
2019-03-28T09:41:52.565Z,15.15
2019-03-28T09:45:00.456Z,23.40
2019-03-28T09:48:11.498Z,19.52
2019-03-28T09:51:17.810Z,14.35
2019-03-28T09:54:25.755Z,12.70
2019-03-28T09:57:33.724Z,16.42
2019-03-28T10:00:42.172Z,13.72
2019-03-28T10:03:50.273Z,18.05
2019-03-28T10:06:58.260Z,13.60
2019-03-28T10:10:09.148Z,12.95
2019-03-28T10:13:16.554Z,14.63
2019-03-28T10:16:25.684Z,11.80
2019-03-28T10:19:33.509Z,15.55
2019-03-28T10:22:42.795Z,13.43
2019-03-28T10:25:50.490Z,15.13
2019-03-28T10:28:58.392Z,16.55
2019-03-28T10:32:06.537Z,15.55
2019-03-28T10:35:27.538Z,10.53
2019-03-28T10:38:35.286Z,13.78
2019-03-28T10:41:46.015Z,11.97
2019-03-28T10:44:54.124Z,13.25
2019-03-28T10:48:01.948Z,11.45
2019-03-28T10:51:09.850Z,16.02
2019-03-28T10:54:20.635Z,14.30
2019-03-28T10:57:31.974Z,13.10
2019-03-28T11:00:37.345Z,15.43
2019-03-28T11:03:45.499Z,15.15
2019-03-28T11:06:53.379Z,17.62
2019-03-28T11:10:01.363Z,14.75
2019-03-28T11:13:09.822Z,13.32
2019-03-28T11:16:17.925Z,12.28
2019-03-28T11:19:27.141Z,16.07
2019-03-28T11:22:34.911Z,16.77
2019-03-28T11:25:44.616Z,16.67
2019-03-28T11:28:52.449Z,13.00
2019-03-28T11:32:00.521Z,14.75
2019-03-28T11:35:09.043Z,17.02
2019-03-28T11:38:17.318Z,18.98
2019-03-28T11:41:25.097Z,31.93
2019-03-28T11:44:32.958Z,13.95
2019-03-28T11:47:44.576Z,19.85
2019-03-28T11:50:52.476Z,17.35
2019-03-28T11:54:00.338Z,15.18
2019-03-28T11:57:08.245Z,12.95
2019-03-28T12:00:17.508Z,16.07
2019-03-28T12:03:26.789Z,16.35
2019-03-28T12:06:34.624Z,17.73
2019-03-28T12:09:42.668Z,19.32
2019-03-28T12:12:50.395Z,19.02
2019-03-28T12:15:58.247Z,16.17
2019-03-28T12:19:05.945Z,15.60
2019-03-28T12:22:13.996Z,14.45
2019-03-28T12:25:21.732Z,15.60
2019-03-28T12:28:29.467Z,17.67
2019-03-28T12:31:38.398Z,17.73
2019-03-28T12:34:46.202Z,13.72
2019-03-28T12:37:53.966Z,15.13
2019-03-28T12:41:01.960Z,16.10
2019-03-28T12:44:09.837Z,14.07
2019-03-28T12:47:23.459Z,17.50
2019-03-28T12:50:31.610Z,16.40
2019-03-28T12:53:40.914Z,15.23
2019-03-28T12:56:49.720Z,14.90
2019-03-28T12:59:57.737Z,21.20
2019-03-28T13:03:05.518Z,17.17
2019-03-28T13:06:13.930Z,15.55
2019-03-28T13:09:21.713Z,16.82
2019-03-28T13:12:30.514Z,15.05
2019-03-28T13:15:38.391Z,15.80
2019-03-28T13:18:47.385Z,17.30
2019-03-28T13:21:55.122Z,15.40
2019-03-28T13:25:10.283Z,14.53
2019-03-28T13:28:20.571Z,16.10
2019-03-28T13:31:28.616Z,16.30
2019-03-28T13:34:36.556Z,18.50
2019-03-28T13:37:44.324Z,18.17
2019-03-28T13:40:52.130Z,25.17
2019-03-28T13:44:00.958Z,26.23
2019-03-28T13:47:08.885Z,20.65
2019-03-28T13:50:17.656Z,19.40
2019-03-28T13:53:38.405Z,15.13
2019-03-28T13:56:38.333Z,18.15
2019-03-28T13:59:47.124Z,14.07
2019-03-28T14:02:58.838Z,15.60
2019-03-28T14:06:04.770Z,16.80
2019-03-28T14:09:15.683Z,17.05
2019-03-28T14:12:23.403Z,15.90
2019-03-28T14:15:31.500Z,21.15
2019-03-28T14:18:44.924Z,16.15
2019-03-28T14:21:49.843Z,13.40
2019-03-28T14:24:57.719Z,15.10
2019-03-28T14:28:06.009Z,15.75
2019-03-28T14:31:14.181Z,18.15
2019-03-28T14:34:22.057Z,12.85
2019-03-28T14:37:29.865Z,16.23
2019-03-28T14:40:37.903Z,15.55
2019-03-28T14:43:45.695Z,14.45
2019-03-28T14:46:53.508Z,14.30
2019-03-28T14:50:01.478Z,18.65
2019-03-28T14:53:10.246Z,14.55
2019-03-28T14:56:18.810Z,17.15
2019-03-28T14:59:32.703Z,16.12
2019-03-28T15:02:37.849Z,15.35
2019-03-28T15:05:45.650Z,17.95
2019-03-28T15:08:54.729Z,18.40
2019-03-28T15:12:02.459Z,18.67
2019-03-28T15:15:10.325Z,17.60
2019-03-28T15:18:18.348Z,19.98
2019-03-28T15:21:26.167Z,17.98
2019-03-28T15:24:34.109Z,18.85
2019-03-28T15:27:41.897Z,18.17
2019-03-28T15:30:51.588Z,17.15
2019-03-28T15:33:59.525Z,15.55
2019-03-28T15:37:07.389Z,17.77
2019-03-28T15:40:15.281Z,22.22
2019-03-28T15:43:23.478Z,22.62
2019-03-28T15:46:31.311Z,19.45
2019-03-28T15:49:42.378Z,23.50
2019-03-28T15:52:50.275Z,17.37
2019-03-28T15:55:58.133Z,16.23
2019-03-28T15:59:06.171Z,13.95
2019-03-28T16:02:14.230Z,15.93
2019-03-28T16:05:22.013Z,13.00
2019-03-28T16:08:29.828Z,16.23
2019-03-28T16:11:37.625Z,16.77
2019-03-28T16:14:48.819Z,18.92
2019-03-28T16:17:57.798Z,18.40
2019-03-28T16:21:06.451Z,16.93
2019-03-28T16:24:15.338Z,17.05
2019-03-28T16:27:23.220Z,16.87
2019-03-28T16:30:53.774Z,20.32
2019-03-28T16:34:12.323Z,16.17
2019-03-28T16:37:57.918Z,17.52
2019-03-28T16:41:06.028Z,18.50
2019-03-28T16:44:14.097Z,17.40
2019-03-28T16:48:31.047Z,15.60
2019-03-28T16:54:53.090Z,14.70
2019-03-28T16:58:02.040Z,15.98
2019-03-28T17:01:13.368Z,19.98
2019-03-28T17:04:24.183Z,15.93
2019-03-28T17:07:35.937Z,18.75
2019-03-28T17:11:47.582Z,16.52
2019-03-28T17:18:11.259Z,28.47
2019-03-28T17:21:19.585Z,37.98
2019-03-28T17:24:31.801Z,26.17
2019-03-28T17:28:20.994Z,21.90
2019-03-28T17:31:39.188Z,24.95
2019-03-28T17:34:48.023Z,14.75
2019-03-28T17:37:57.215Z,17.37
2019-03-28T17:41:06.649Z,17.23
2019-03-28T17:44:15.862Z,16.85
2019-03-28T17:47:23.693Z,13.80
2019-03-28T17:50:31.642Z,16.77
2019-03-28T17:53:42.139Z,9.48
2019-03-28T17:56:50.153Z,10.90
2019-03-28T17:59:57.989Z,9.90
2019-03-28T18:03:09.834Z,10.95
2019-03-28T18:06:18.219Z,12.30
2019-03-28T18:09:26.235Z,8.83
2019-03-28T18:12:34.092Z,10.05
2019-03-28T18:15:56.891Z,7.97
2019-03-28T18:19:05.940Z,12.50
2019-03-28T18:22:14.779Z,11.88
2019-03-28T18:25:22.667Z,8.70
2019-03-28T18:28:33.674Z,11.48
2019-03-28T18:31:50.327Z,9.53
2019-03-28T18:35:04.691Z,9.40
2019-03-28T18:38:04.063Z,10.93
2019-03-28T18:41:15.740Z,12.50
2019-03-28T18:44:23.640Z,12.90
2019-03-28T18:47:31.574Z,11.35
2019-03-28T18:50:41.119Z,14.00
2019-03-28T18:53:50.146Z,12.65
2019-03-28T18:56:58.233Z,15.35
2019-03-28T19:00:08.450Z,14.33
2019-03-28T19:03:16.351Z,11.70
2019-03-28T19:06:24.221Z,12.28
2019-03-28T19:09:33.137Z,10.05
2019-03-28T19:12:42.870Z,14.35
2019-03-28T19:15:52.122Z,12.25
2019-03-28T19:19:00.242Z,13.43
2019-03-28T19:22:08.497Z,14.05
2019-03-28T19:25:20.951Z,9.18
2019-03-28T19:28:29.640Z,8.58
2019-03-28T19:31:37.583Z,10.03
2019-03-28T19:34:45.472Z,8.20
2019-03-28T19:37:53.621Z,9.73
2019-03-28T19:41:01.478Z,8.40
2019-03-28T19:44:13.309Z,9.20
2019-03-28T19:47:23.694Z,8.00
2019-03-28T19:50:34.122Z,9.00
2019-03-28T19:53:45.354Z,8.85
2019-03-28T19:56:57.565Z,6.03
2019-03-28T20:00:09.237Z,8.53
2019-03-28T20:03:23.622Z,9.33
2019-03-28T20:06:33.547Z,9.53
2019-03-28T20:09:47.795Z,8.18
2019-03-28T20:13:00.398Z,7.90
2019-03-28T20:16:16.389Z,8.43
2019-03-28T20:19:24.359Z,9.00
2019-03-28T20:22:33.115Z,9.73
2019-03-28T20:25:42.781Z,8.40
2019-03-28T20:28:50.583Z,8.80
2019-03-28T20:31:58.615Z,9.03
2019-03-28T20:35:10.446Z,8.00
2019-03-28T20:38:18.093Z,8.10
2019-03-28T20:41:25.868Z,7.72
2019-03-28T20:44:33.696Z,7.30
2019-03-28T20:47:44.038Z,6.42
2019-03-28T20:50:52.443Z,8.43
2019-03-28T20:54:00.683Z,7.30
2019-03-28T20:57:10.193Z,7.58
2019-03-28T21:00:28.269Z,6.35
2019-03-28T21:03:36.709Z,6.62
2019-03-28T21:06:44.952Z,6.20
2019-03-28T21:09:52.768Z,7.33
2019-03-28T21:13:00.731Z,5.67
2019-03-28T21:16:11.795Z,8.60
2019-03-28T21:19:19.052Z,6.58
2019-03-28T21:22:27.027Z,7.42
2019-03-28T21:25:34.888Z,7.30
2019-03-28T21:28:47.383Z,8.35
2019-03-28T21:31:54.895Z,7.05
2019-03-28T21:35:02.869Z,6.78
2019-03-28T21:38:11.848Z,7.22
2019-03-28T21:41:20.279Z,5.92
2019-03-28T21:44:28.354Z,6.97
2019-03-28T21:47:36.140Z,8.83
2019-03-28T21:50:44.055Z,9.43
2019-03-28T21:53:51.939Z,7.17
2019-03-28T21:56:59.794Z,8.03
2019-03-28T22:00:10.172Z,5.92
2019-03-28T22:03:18.090Z,5.90
2019-03-28T22:06:27.081Z,8.43
2019-03-28T22:09:35.022Z,7.00
2019-03-28T22:12:43.157Z,7.90
2019-03-28T22:15:50.786Z,5.90
2019-03-28T22:18:59.790Z,6.30
2019-03-28T22:22:08.343Z,6.15
2019-03-28T22:25:16.395Z,8.90
2019-03-28T22:28:24.369Z,11.80
2019-03-28T22:31:32.368Z,7.00
2019-03-28T22:34:40.321Z,8.75
2019-03-28T22:37:48.182Z,6.80
2019-03-28T22:40:56.951Z,8.78
2019-03-28T22:44:07.728Z,8.45
2019-03-28T22:47:15.670Z,9.53
2019-03-28T22:50:24.091Z,11.30
2019-03-28T22:53:32.258Z,8.25
2019-03-28T22:56:40.150Z,9.25
2019-03-28T22:59:48.007Z,9.98
2019-03-28T23:02:56.067Z,7.33
2019-03-28T23:06:07.142Z,9.80
2019-03-28T23:09:15.033Z,7.35
2019-03-28T23:12:22.925Z,8.28
2019-03-28T23:15:30.912Z,11.85
2019-03-28T23:18:39.829Z,9.28
2019-03-28T23:21:47.691Z,8.38
2019-03-28T23:24:55.639Z,9.88
2019-03-28T23:28:03.506Z,9.08
2019-03-28T23:31:11.285Z,7.30
2019-03-28T23:34:20.120Z,7.25
2019-03-28T23:37:28.127Z,9.80
2019-03-28T23:40:35.822Z,7.55
2019-03-28T23:43:43.610Z,7.87
2019-03-28T23:46:52.653Z,10.95
2019-03-28T23:50:00.506Z,6.42
2019-03-28T23:53:08.943Z,8.45
2019-03-28T23:56:17.095Z,8.95
2019-03-28T23:59:24.803Z,7.50
